createdAt,value
2023-05-19T00:01:19.127Z,2.00
2023-05-19T00:03:54.256Z,2.05
2023-05-19T00:06:27.924Z,2.00
2023-05-19T00:08:58.679Z,2.20
2023-05-19T00:11:26.938Z,2.05
2023-05-19T00:13:54.991Z,1.88
2023-05-19T00:16:22.933Z,1.92
2023-05-19T00:18:49.790Z,2.00
2023-05-19T00:21:16.816Z,1.90
2023-05-19T00:23:43.618Z,1.77
2023-05-19T00:26:10.824Z,1.80
2023-05-19T00:28:37.296Z,2.10
2023-05-19T00:31:05.476Z,1.98
2023-05-19T00:33:33.811Z,2.40
2023-05-19T00:36:03.381Z,1.80
2023-05-19T00:38:35.025Z,1.90
2023-05-19T00:41:02.668Z,1.80
2023-05-19T00:43:30.425Z,2.20
2023-05-19T00:45:57.627Z,1.75
2023-05-19T00:48:25.564Z,2.15
2023-05-19T00:50:54.881Z,1.85
2023-05-19T00:53:22.994Z,1.80
2023-05-19T00:55:49.495Z,1.95
2023-05-19T00:58:16.667Z,1.90
2023-05-19T01:00:43.349Z,1.67
2023-05-19T01:03:13.035Z,1.63
2023-05-19T01:05:54.781Z,1.88
2023-05-19T01:08:21.270Z,1.73
2023-05-19T01:10:47.983Z,1.75
2023-05-19T01:13:15.031Z,2.00
2023-05-19T01:16:13.111Z,1.60
2023-05-19T01:18:58.384Z,2.00
2023-05-19T01:21:48.192Z,1.95
2023-05-19T01:24:27.933Z,1.70
2023-05-19T01:27:18.468Z,1.85
2023-05-19T01:29:50.702Z,1.90
2023-05-19T01:32:19.582Z,1.50
2023-05-19T01:34:48.252Z,1.73
2023-05-19T01:37:17.727Z,1.70
2023-05-19T01:39:45.155Z,1.88
2023-05-19T01:42:12.830Z,1.77
2023-05-19T01:44:39.486Z,1.80
2023-05-19T01:47:06.174Z,1.65
2023-05-19T01:49:32.633Z,2.22
2023-05-19T01:51:59.110Z,1.90
2023-05-19T01:54:25.579Z,1.50
2023-05-19T01:57:10.107Z,1.75
2023-05-19T02:00:05.697Z,1.90
2023-05-19T02:03:03.915Z,1.80
2023-05-19T02:05:54.838Z,2.00
2023-05-19T02:08:38.561Z,1.88
2023-05-19T02:11:14.920Z,2.10
2023-05-19T02:13:44.159Z,1.80
2023-05-19T02:16:13.254Z,1.80
2023-05-19T02:18:40.546Z,1.67
2023-05-19T02:21:07.120Z,1.77
2023-05-19T02:23:33.581Z,1.77
2023-05-19T02:26:01.095Z,1.73
2023-05-19T02:28:28.457Z,1.70
2023-05-19T02:30:54.992Z,1.73
2023-05-19T02:33:24.614Z,1.90
2023-05-19T02:35:51.158Z,1.90
2023-05-19T02:38:18.125Z,1.67
2023-05-19T02:40:44.599Z,1.77
2023-05-19T02:43:11.115Z,1.70
2023-05-19T02:45:37.577Z,1.92
2023-05-19T02:48:04.385Z,1.77
2023-05-19T02:50:31.043Z,2.00
2023-05-19T02:52:57.640Z,1.80
2023-05-19T02:55:24.240Z,2.08
2023-05-19T02:57:50.837Z,1.77
2023-05-19T03:00:20.143Z,1.80
2023-05-19T03:02:46.926Z,1.60
2023-05-19T03:05:14.402Z,1.95
2023-05-19T03:07:40.900Z,1.83
2023-05-19T03:10:08.458Z,1.77
2023-05-19T03:12:35.030Z,2.03
2023-05-19T03:15:01.616Z,1.90
2023-05-19T03:17:33.573Z,1.92
2023-05-19T03:20:01.499Z,1.85
2023-05-19T03:22:27.975Z,1.88
2023-05-19T03:24:54.509Z,1.67
2023-05-19T03:27:21.256Z,1.65
2023-05-19T03:29:47.896Z,1.83
2023-05-19T03:32:14.463Z,1.65
2023-05-19T03:34:40.941Z,1.83
2023-05-19T03:37:07.891Z,2.00
2023-05-19T03:39:34.359Z,1.80
2023-05-19T03:42:00.908Z,2.10
2023-05-19T03:44:27.416Z,2.00
2023-05-19T03:46:53.843Z,1.60
2023-05-19T03:49:20.273Z,1.88
2023-05-19T03:51:47.012Z,1.80
2023-05-19T03:54:13.496Z,1.70
2023-05-19T03:56:41.076Z,1.83
2023-05-19T03:59:07.814Z,1.88
2023-05-19T04:01:34.251Z,1.65
2023-05-19T04:04:00.774Z,1.95
2023-05-19T04:06:27.526Z,1.80
2023-05-19T04:08:54.019Z,1.90
2023-05-19T04:11:21.460Z,1.95
2023-05-19T04:13:47.933Z,1.70
2023-05-19T04:16:14.727Z,2.15
2023-05-19T04:18:41.258Z,1.70
2023-05-19T04:21:08.670Z,1.90
2023-05-19T04:23:35.118Z,1.90
2023-05-19T04:26:02.450Z,1.65
2023-05-19T04:28:29.901Z,1.77
2023-05-19T04:30:58.526Z,2.00
2023-05-19T04:33:25.083Z,1.95
2023-05-19T04:35:51.751Z,2.10
2023-05-19T04:38:19.996Z,1.90
2023-05-19T04:40:46.536Z,1.80
2023-05-19T04:43:13.081Z,1.70
2023-05-19T04:45:42.520Z,2.17
2023-05-19T04:48:09.046Z,1.38
2023-05-19T04:50:38.544Z,1.70
2023-05-19T04:53:05.078Z,1.80
2023-05-19T04:55:32.868Z,2.20
2023-05-19T04:57:59.333Z,1.80
2023-05-19T05:00:25.988Z,1.70
2023-05-19T05:02:52.491Z,1.80
2023-05-19T05:05:19.021Z,1.70
2023-05-19T05:07:45.983Z,1.75
2023-05-19T05:10:12.486Z,2.20
2023-05-19T05:12:39.195Z,1.73
2023-05-19T05:15:07.084Z,2.03
2023-05-19T05:17:35.423Z,2.10
2023-05-19T05:20:04.530Z,2.30
2023-05-19T05:22:31.245Z,2.10
2023-05-19T05:24:58.015Z,2.00
2023-05-19T05:27:24.558Z,2.10
2023-05-19T05:29:51.678Z,2.13
2023-05-19T05:32:18.268Z,2.17
2023-05-19T05:34:45.105Z,2.10
2023-05-19T05:37:13.152Z,2.28
2023-05-19T05:39:41.086Z,2.10
2023-05-19T05:42:09.159Z,2.10
2023-05-19T05:44:35.869Z,2.10
2023-05-19T05:47:03.813Z,1.92
2023-05-19T05:49:30.941Z,2.15
2023-05-19T05:52:05.522Z,1.95
2023-05-19T05:54:33.431Z,1.83
2023-05-19T05:57:00.201Z,1.88
2023-05-19T05:59:26.632Z,2.00
2023-05-19T06:01:53.139Z,1.98
2023-05-19T06:04:21.123Z,2.10
2023-05-19T06:06:47.999Z,2.00
2023-05-19T06:09:14.512Z,2.00
2023-05-19T06:11:40.974Z,2.03
2023-05-19T06:14:07.412Z,1.90
2023-05-19T06:16:33.964Z,2.58
2023-05-19T06:19:00.652Z,2.30
2023-05-19T06:21:27.184Z,2.20
2023-05-19T06:23:53.686Z,1.90
2023-05-19T06:26:20.195Z,2.10
2023-05-19T06:28:46.701Z,2.20
2023-05-19T06:31:13.222Z,2.20
2023-05-19T06:33:39.701Z,2.30
2023-05-19T06:36:06.410Z,2.30
2023-05-19T06:38:32.921Z,2.38
2023-05-19T06:40:59.381Z,2.30
2023-05-19T06:43:25.982Z,2.40
2023-05-19T06:45:52.617Z,2.17
2023-05-19T06:48:19.071Z,2.20
2023-05-19T06:50:46.052Z,2.10
2023-05-19T06:53:12.594Z,2.20
2023-05-19T06:55:47.201Z,1.98
2023-05-19T06:58:24.473Z,2.10
2023-05-19T07:00:51.087Z,2.03
2023-05-19T07:03:18.025Z,2.25
2023-05-19T07:05:44.652Z,2.10
2023-05-19T07:08:11.101Z,2.20
2023-05-19T07:10:37.705Z,2.20
2023-05-19T07:13:04.590Z,2.33
2023-05-19T07:15:31.236Z,2.10
2023-05-19T07:17:58.468Z,2.45
2023-05-19T07:20:25.025Z,2.40
2023-05-19T07:22:51.524Z,2.20
2023-05-19T07:25:17.983Z,2.00
2023-05-19T07:27:45.685Z,2.00
2023-05-19T07:30:12.551Z,2.28
2023-05-19T07:32:39.186Z,2.17
2023-05-19T07:35:06.305Z,2.50
2023-05-19T07:37:32.816Z,1.88
2023-05-19T07:39:59.280Z,2.30
2023-05-19T07:42:25.747Z,2.10
2023-05-19T07:44:52.166Z,2.17
2023-05-19T07:47:18.647Z,2.20
2023-05-19T07:49:45.129Z,2.10
2023-05-19T07:52:11.626Z,1.88
2023-05-19T07:54:38.115Z,2.38
2023-05-19T07:57:04.682Z,2.80
2023-05-19T07:59:31.389Z,2.95
2023-05-19T08:01:58.583Z,3.50
2023-05-19T08:04:25.135Z,2.55
2023-05-19T08:06:53.058Z,2.50
2023-05-19T08:09:20.151Z,2.65
2023-05-19T08:11:47.050Z,2.00
2023-05-19T08:14:13.540Z,2.67
2023-05-19T08:16:42.264Z,2.33
2023-05-19T08:19:09.324Z,2.25
2023-05-19T08:21:36.645Z,1.85
2023-05-19T08:24:03.594Z,2.13
2023-05-19T08:26:30.141Z,2.13
2023-05-19T08:28:56.695Z,2.50
2023-05-19T08:31:23.598Z,1.92
2023-05-19T08:33:50.173Z,1.85
2023-05-19T08:36:17.025Z,1.90
2023-05-19T08:38:43.471Z,2.42
2023-05-19T08:41:10.746Z,1.77
2023-05-19T08:43:39.414Z,1.77
2023-05-19T08:46:08.235Z,2.15
2023-05-19T08:48:35.520Z,3.10
2023-05-19T08:51:17.870Z,3.55
2023-05-19T08:53:51.747Z,3.30
2023-05-19T08:56:25.189Z,3.15
2023-05-19T08:58:51.865Z,2.72
2023-05-19T09:01:20.023Z,2.70
2023-05-19T09:03:49.725Z,2.55
2023-05-19T09:06:16.755Z,2.83
2023-05-19T09:08:43.846Z,2.40
2023-05-19T09:11:10.765Z,2.42
2023-05-19T09:13:37.277Z,2.30
2023-05-19T09:16:03.967Z,2.25
2023-05-19T09:18:30.556Z,2.13
2023-05-19T09:21:02.445Z,2.40
2023-05-19T09:23:31.690Z,2.50
2023-05-19T09:25:58.276Z,2.03
2023-05-19T09:28:30.573Z,2.38
2023-05-19T09:31:01.191Z,2.45
2023-05-19T09:33:28.614Z,1.83
2023-05-19T09:35:56.803Z,1.95
2023-05-19T09:38:27.087Z,2.10
2023-05-19T09:40:57.294Z,1.92
2023-05-19T09:43:23.972Z,1.90
2023-05-19T09:46:01.113Z,2.03
2023-05-19T09:48:27.981Z,2.00
2023-05-19T09:50:54.989Z,1.73
2023-05-19T09:53:22.381Z,2.05
2023-05-19T09:55:49.914Z,1.90
2023-05-19T09:58:18.381Z,1.80
2023-05-19T10:00:51.448Z,2.25
2023-05-19T10:03:18.905Z,1.83
2023-05-19T10:05:46.381Z,1.80
2023-05-19T10:08:14.261Z,1.73
2023-05-19T10:10:41.434Z,1.90
2023-05-19T10:13:07.961Z,1.70
2023-05-19T10:15:40.835Z,1.80
2023-05-19T10:18:15.628Z,1.83
2023-05-19T10:20:42.577Z,1.60
2023-05-19T10:23:09.054Z,1.77
2023-05-19T10:25:36.526Z,1.60
2023-05-19T10:28:11.471Z,2.13
2023-05-19T10:30:51.251Z,2.00
2023-05-19T10:33:21.123Z,1.70
2023-05-19T10:36:09.061Z,1.58
2023-05-19T10:38:50.458Z,1.65
2023-05-19T10:41:26.920Z,1.52
2023-05-19T10:44:17.719Z,1.70
2023-05-19T10:46:44.346Z,1.70
2023-05-19T10:49:10.940Z,2.00
2023-05-19T10:51:37.389Z,1.60
2023-05-19T10:54:14.377Z,1.73
2023-05-19T10:56:45.771Z,1.45
2023-05-19T10:59:32.477Z,1.80
2023-05-19T11:02:08.288Z,1.60
2023-05-19T11:04:51.274Z,1.63
2023-05-19T11:07:20.370Z,1.52
2023-05-19T11:09:54.319Z,1.40
2023-05-19T11:12:25.450Z,1.83
2023-05-19T11:14:55.503Z,1.83
2023-05-19T11:17:24.591Z,1.52
2023-05-19T11:19:55.908Z,1.85
2023-05-19T11:22:27.159Z,1.60
2023-05-19T11:24:57.428Z,1.60
2023-05-19T11:27:34.628Z,1.48
2023-05-19T11:30:02.227Z,1.42
2023-05-19T11:32:30.539Z,1.40
2023-05-19T11:34:57.981Z,1.40
2023-05-19T11:37:24.634Z,1.60
2023-05-19T11:39:52.272Z,1.40
2023-05-19T11:42:19.846Z,1.20
2023-05-19T11:44:46.831Z,1.27
2023-05-19T11:47:14.533Z,1.63
2023-05-19T11:49:54.807Z,1.23
2023-05-19T11:52:23.196Z,1.30
2023-05-19T11:54:49.828Z,1.65
2023-05-19T11:57:16.759Z,1.25
2023-05-19T11:59:48.143Z,1.80
2023-05-19T12:02:19.941Z,1.50
2023-05-19T12:04:49.859Z,1.65
2023-05-19T12:07:18.451Z,1.30
2023-05-19T12:09:48.158Z,1.50
2023-05-19T12:12:17.014Z,1.55
2023-05-19T12:14:43.870Z,1.45
2023-05-19T12:17:15.002Z,1.40
2023-05-19T12:19:44.887Z,1.27
2023-05-19T12:22:12.500Z,1.58
2023-05-19T12:24:40.077Z,1.30
2023-05-19T12:27:16.879Z,1.35
2023-05-19T12:29:43.395Z,1.40
2023-05-19T12:32:10.134Z,1.17
2023-05-19T12:34:38.276Z,1.42
2023-05-19T12:37:06.082Z,1.40
2023-05-19T12:39:33.769Z,1.33
2023-05-19T12:42:11.305Z,1.40
2023-05-19T12:44:52.687Z,1.40
2023-05-19T12:47:20.325Z,1.70
2023-05-19T12:49:57.120Z,1.50
2023-05-19T12:52:24.231Z,1.20
2023-05-19T12:55:02.057Z,1.30
2023-05-19T12:57:32.117Z,1.33
2023-05-19T13:00:06.818Z,1.50
2023-05-19T13:02:36.164Z,1.30
2023-05-19T13:05:04.898Z,1.38
2023-05-19T13:07:31.423Z,1.30
2023-05-19T13:09:58.660Z,1.10
2023-05-19T13:12:26.064Z,1.33
2023-05-19T13:14:55.416Z,1.40
2023-05-19T13:17:22.319Z,1.50
2023-05-19T13:19:48.845Z,1.23
2023-05-19T13:22:15.359Z,1.33
2023-05-19T13:24:41.784Z,1.35
2023-05-19T13:27:08.430Z,1.48
2023-05-19T13:29:36.131Z,1.50
2023-05-19T13:32:02.571Z,1.55
2023-05-19T13:34:29.274Z,1.30
2023-05-19T13:36:56.067Z,1.40
2023-05-19T13:39:22.566Z,1.40
2023-05-19T13:41:49.198Z,1.35
2023-05-19T13:44:16.779Z,1.45
2023-05-19T13:46:45.670Z,1.33
2023-05-19T13:49:13.417Z,1.20
2023-05-19T13:51:43.486Z,1.23
2023-05-19T13:54:10.330Z,1.50
2023-05-19T13:56:36.974Z,1.30
2023-05-19T13:59:04.116Z,1.30
2023-05-19T14:01:30.804Z,1.42
2023-05-19T14:03:57.561Z,1.35
2023-05-19T14:06:24.545Z,1.23
2023-05-19T14:08:51.197Z,1.48
2023-05-19T14:11:19.741Z,1.73
2023-05-19T14:13:52.482Z,1.27
2023-05-19T14:16:20.465Z,1.50
2023-05-19T14:18:47.053Z,1.60
2023-05-19T14:21:13.751Z,1.40
2023-05-19T14:23:40.193Z,1.40
2023-05-19T14:26:06.740Z,1.30
2023-05-19T14:28:33.247Z,1.30
2023-05-19T14:30:59.725Z,1.48
2023-05-19T14:33:26.207Z,1.35
2023-05-19T14:35:53.274Z,1.30
2023-05-19T14:38:19.711Z,1.45
2023-05-19T14:40:48.304Z,1.60
2023-05-19T14:43:14.829Z,1.30
2023-05-19T14:45:43.842Z,1.50
2023-05-19T14:48:13.922Z,1.58
2023-05-19T14:50:40.500Z,1.40
2023-05-19T14:53:07.433Z,1.42
2023-05-19T14:55:33.995Z,112.90
2023-05-19T14:58:00.468Z,140.88
2023-05-19T15:00:27.003Z,89.13
2023-05-19T15:02:54.164Z,67.30
2023-05-19T15:05:22.815Z,50.63
2023-05-19T15:07:49.266Z,42.63
2023-05-19T15:10:16.737Z,40.65
2023-05-19T15:12:43.253Z,36.33
2023-05-19T15:15:10.231Z,33.67
2023-05-19T15:17:36.823Z,31.00
2023-05-19T15:20:03.549Z,28.77
2023-05-19T15:22:30.035Z,27.08
2023-05-19T15:24:56.507Z,27.25
2023-05-19T15:27:23.430Z,24.25
2023-05-19T15:29:49.880Z,22.58
2023-05-19T15:32:16.440Z,21.15
2023-05-19T15:34:42.951Z,19.92
2023-05-19T15:37:09.495Z,19.75
2023-05-19T15:39:36.042Z,18.38
2023-05-19T15:42:02.564Z,16.38
2023-05-19T15:44:29.991Z,17.15
2023-05-19T15:46:56.499Z,15.90
2023-05-19T15:49:25.064Z,14.10
2023-05-19T15:51:51.839Z,14.18
2023-05-19T15:54:18.647Z,13.30
2023-05-19T15:56:45.203Z,13.15
2023-05-19T15:59:11.669Z,12.20
2023-05-19T16:01:38.293Z,11.90
2023-05-19T16:04:05.076Z,11.40
2023-05-19T16:06:31.653Z,11.00
2023-05-19T16:08:58.160Z,10.10
2023-05-19T16:11:24.665Z,9.73
2023-05-19T16:13:51.103Z,9.43
2023-05-19T16:16:18.793Z,8.93
2023-05-19T16:18:45.475Z,8.88
2023-05-19T16:21:12.016Z,8.45
2023-05-19T16:23:38.551Z,7.47
2023-05-19T16:26:05.075Z,8.07
2023-05-19T16:28:32.431Z,7.70
2023-05-19T16:31:00.202Z,7.38
2023-05-19T16:33:27.914Z,7.00
2023-05-19T16:35:54.407Z,7.13
2023-05-19T16:38:21.003Z,6.45
2023-05-19T16:40:47.797Z,6.80
2023-05-19T16:43:14.432Z,6.05
2023-05-19T16:45:40.957Z,6.13
2023-05-19T16:48:07.705Z,5.90
2023-05-19T16:50:34.761Z,5.50
2023-05-19T16:53:01.302Z,5.10
2023-05-19T16:55:27.767Z,4.80
2023-05-19T16:57:54.284Z,4.75
2023-05-19T17:00:20.971Z,5.30
2023-05-19T17:02:48.060Z,4.63
2023-05-19T17:05:14.681Z,4.80
2023-05-19T17:07:41.179Z,4.30
2023-05-19T17:10:08.316Z,4.72
2023-05-19T17:12:34.766Z,4.78
2023-05-19T17:15:01.536Z,4.53
2023-05-19T17:17:28.076Z,4.35
2023-05-19T17:19:54.710Z,4.00
2023-05-19T17:22:21.188Z,3.80
2023-05-19T17:24:47.984Z,4.15
2023-05-19T17:27:15.084Z,3.92
2023-05-19T17:29:41.637Z,4.30
2023-05-19T17:32:08.253Z,3.90
2023-05-19T17:34:34.726Z,3.83
2023-05-19T17:37:01.451Z,3.92
2023-05-19T17:39:28.036Z,3.72
2023-05-19T17:41:54.477Z,3.90
2023-05-19T17:44:21.336Z,3.75
2023-05-19T17:46:47.994Z,3.95
2023-05-19T17:49:15.385Z,3.95
2023-05-19T17:51:42.093Z,3.15
2023-05-19T17:54:08.889Z,3.90
2023-05-19T17:56:40.845Z,3.50
2023-05-19T17:59:07.613Z,3.80
2023-05-19T18:01:34.249Z,3.40
2023-05-19T18:04:01.527Z,2.80
2023-05-19T18:06:29.361Z,3.25
2023-05-19T18:08:58.910Z,2.80
2023-05-19T18:11:28.604Z,3.35
2023-05-19T18:13:55.176Z,3.33
2023-05-19T18:16:21.694Z,3.20
2023-05-19T18:18:50.412Z,3.17
2023-05-19T18:21:18.082Z,2.58
2023-05-19T18:23:45.679Z,2.83
2023-05-19T18:26:15.890Z,3.00
2023-05-19T18:28:42.401Z,2.72
2023-05-19T18:31:09.359Z,2.20
2023-05-19T18:33:35.891Z,2.40
2023-05-19T18:36:02.367Z,2.47
2023-05-19T18:38:28.845Z,2.45
2023-05-19T18:40:56.745Z,2.80
2023-05-19T18:43:23.578Z,2.42
2023-05-19T18:45:50.143Z,2.38
2023-05-19T18:48:16.709Z,2.60
2023-05-19T18:50:44.608Z,1.95
2023-05-19T18:53:11.802Z,2.15
2023-05-19T18:55:38.659Z,2.30
2023-05-19T18:58:06.127Z,2.15
2023-05-19T19:00:33.126Z,2.03
2023-05-19T19:03:00.098Z,2.55
2023-05-19T19:05:26.629Z,2.00
2023-05-19T19:07:53.392Z,1.95
2023-05-19T19:10:20.085Z,2.60
2023-05-19T19:12:46.762Z,1.95
2023-05-19T19:15:13.262Z,2.08
2023-05-19T19:17:43.612Z,1.98
2023-05-19T19:20:10.639Z,2.10
2023-05-19T19:22:37.198Z,2.20
2023-05-19T19:25:03.840Z,1.80
2023-05-19T19:27:31.405Z,1.85
2023-05-19T19:29:58.635Z,2.20
2023-05-19T19:32:25.512Z,1.90
2023-05-19T19:34:53.307Z,1.90
2023-05-19T19:37:19.887Z,1.80
2023-05-19T19:39:46.698Z,1.95
2023-05-19T19:42:13.169Z,1.90
2023-05-19T19:44:39.711Z,2.00
2023-05-19T19:47:06.486Z,1.83
2023-05-19T19:49:33.524Z,2.03
2023-05-19T19:52:00.032Z,1.98
2023-05-19T19:54:26.471Z,2.08
2023-05-19T19:56:52.924Z,2.25
2023-05-19T19:59:19.694Z,1.80
2023-05-19T20:01:46.219Z,2.08
2023-05-19T20:04:12.908Z,1.85
2023-05-19T20:06:39.528Z,1.77
2023-05-19T20:09:06.788Z,2.10
2023-05-19T20:11:33.270Z,1.80
2023-05-19T20:13:59.724Z,1.92
2023-05-19T20:16:26.449Z,1.70
2023-05-19T20:18:53.085Z,1.80
2023-05-19T20:21:19.578Z,1.63
2023-05-19T20:23:46.279Z,2.00
2023-05-19T20:26:13.619Z,1.83
2023-05-19T20:28:40.484Z,1.75
2023-05-19T20:31:07.368Z,1.70
2023-05-19T20:33:33.995Z,1.90
2023-05-19T20:36:00.485Z,1.70
2023-05-19T20:38:27.238Z,1.60
2023-05-19T20:40:54.468Z,1.77
2023-05-19T20:43:21.254Z,2.00
2023-05-19T20:45:47.910Z,1.90
2023-05-19T20:48:15.930Z,1.95
2023-05-19T20:50:42.703Z,1.75
2023-05-19T20:53:09.222Z,1.70
2023-05-19T20:55:38.603Z,1.92
2023-05-19T20:58:05.466Z,1.73
2023-05-19T21:00:32.518Z,1.60
2023-05-19T21:02:59.427Z,2.08
2023-05-19T21:05:26.122Z,1.73
2023-05-19T21:07:52.594Z,1.90
2023-05-19T21:10:19.062Z,1.92
2023-05-19T21:12:46.411Z,1.83
2023-05-19T21:15:13.066Z,1.80
2023-05-19T21:17:39.599Z,1.88
2023-05-19T21:20:06.545Z,1.88
2023-05-19T21:22:33.060Z,1.77
2023-05-19T21:24:59.495Z,1.75
2023-05-19T21:27:26.135Z,1.70
2023-05-19T21:29:54.222Z,1.95
2023-05-19T21:32:21.435Z,1.95
2023-05-19T21:34:47.918Z,1.83
2023-05-19T21:37:18.358Z,1.92
2023-05-19T21:39:45.072Z,1.65
2023-05-19T21:42:11.592Z,2.17
2023-05-19T21:44:38.091Z,1.58
2023-05-19T21:47:04.622Z,1.85
2023-05-19T21:49:31.372Z,1.70
2023-05-19T21:51:57.983Z,1.88
2023-05-19T21:54:24.670Z,1.52
2023-05-19T21:56:51.147Z,2.08
2023-05-19T21:59:17.875Z,1.92
2023-05-19T22:01:44.481Z,1.88
2023-05-19T22:04:11.465Z,1.90
2023-05-19T22:06:37.989Z,1.63
2023-05-19T22:09:04.561Z,1.90
2023-05-19T22:11:31.043Z,1.77
2023-05-19T22:13:57.541Z,1.73
2023-05-19T22:16:24.048Z,1.88
2023-05-19T22:18:50.676Z,1.73
2023-05-19T22:21:17.363Z,2.05
2023-05-19T22:23:44.021Z,1.75
2023-05-19T22:26:10.547Z,1.90
2023-05-19T22:28:36.989Z,2.00
2023-05-19T22:31:04.227Z,1.70
2023-05-19T22:33:30.963Z,2.00
2023-05-19T22:35:57.845Z,1.80
2023-05-19T22:38:24.435Z,1.92
2023-05-19T22:40:51.019Z,1.80
2023-05-19T22:43:20.707Z,1.80
2023-05-19T22:45:48.284Z,2.03
2023-05-19T22:48:14.821Z,1.92
2023-05-19T22:50:41.367Z,2.00
2023-05-19T22:53:07.800Z,2.17
2023-05-19T22:55:34.472Z,1.90
2023-05-19T22:58:01.267Z,2.10
2023-05-19T23:00:27.712Z,2.10
2023-05-19T23:02:54.358Z,1.70
2023-05-19T23:05:20.945Z,1.90
2023-05-19T23:07:50.448Z,2.05
2023-05-19T23:10:16.895Z,1.80
2023-05-19T23:12:43.325Z,2.00
2023-05-19T23:15:10.962Z,1.80
2023-05-19T23:17:37.646Z,1.70
2023-05-19T23:20:04.469Z,1.70
2023-05-19T23:22:30.909Z,1.77
2023-05-19T23:24:57.505Z,1.80
2023-05-19T23:27:23.981Z,2.15
2023-05-19T23:29:51.279Z,1.73
2023-05-19T23:32:17.958Z,2.13
2023-05-19T23:34:44.395Z,1.90
2023-05-19T23:37:11.733Z,2.13
2023-05-19T23:39:38.415Z,1.75
2023-05-19T23:42:05.756Z,1.67
2023-05-19T23:44:32.221Z,2.10
2023-05-19T23:46:58.743Z,2.03
2023-05-19T23:49:25.316Z,2.00
2023-05-19T23:51:51.998Z,2.05
2023-05-19T23:54:18.461Z,1.70
2023-05-19T23:56:44.891Z,2.00
2023-05-19T23:59:11.371Z,1.77
